Time;durP1;ratioP1;P1;durP2;ratioP2;P2;SDS_P1;SDS_P2;PMS_P1;PMS_P2;Temp;Humidity;BMP_temperature;BMP_pressure;BME280_temperature;BME280_humidity;BME280_pressure;Samples;Min_cycle;Max_cycle;Signal;HPM_P1;HPM_P2
2021/03/25 00:01:41;;;;;;;36.78;17.95;;;-0.60;99.90;;;;;;4995644;28;20064;-85
2021/03/25 00:04:08;;;;;;;44.75;20.08;;;-0.60;99.90;;;;;;4995660;28;20047;-85
2021/03/25 00:06:42;;;;;;;43.88;18.58;;;-0.50;99.90;;;;;;4995932;28;20058;-85
2021/03/25 00:09:14;;;;;;;45.25;20.48;;;-0.60;99.90;;;;;;4995376;28;20085;-85
2021/03/25 00:11:40;;;;;;;40.53;19.33;;;-0.60;99.90;;;;;;4995304;28;20054;-85
2021/03/25 00:14:06;;;;;;;39.95;19.10;;;-0.50;99.90;;;;;;4978263;28;20125;-85
2021/03/25 00:16:33;;;;;;;41.65;18.08;;;-0.60;99.90;;;;;;4994543;28;20129;-85
2021/03/25 00:18:59;;;;;;;41.30;18.10;;;-0.60;99.90;;;;;;4978115;28;20046;-85
2021/03/25 00:21:26;;;;;;;40.15;17.58;;;-0.60;99.90;;;;;;4978171;28;20518;-85
2021/03/25 00:23:53;;;;;;;39.20;17.25;;;-0.60;99.90;;;;;;4995212;28;20058;-85
2021/03/25 00:26:19;;;;;;;34.33;16.85;;;-0.60;99.90;;;;;;4994012;28;20050;-85
2021/03/25 00:28:46;;;;;;;40.90;18.65;;;-0.60;99.90;;;;;;4994083;28;20137;-85
2021/03/25 00:31:12;;;;;;;34.35;16.73;;;-0.70;99.90;;;;;;4993892;28;20050;-85
2021/03/25 00:33:38;;;;;;;34.33;17.33;;;-0.70;99.90;;;;;;4994927;28;20137;-84
2021/03/25 00:36:05;;;;;;;39.22;18.70;;;-0.70;99.90;;;;;;4977650;28;20058;-85
2021/03/25 00:38:31;;;;;;;36.97;18.73;;;-0.70;99.90;;;;;;4995013;28;20082;-85
2021/03/25 00:40:58;;;;;;;36.10;17.15;;;-0.80;99.90;;;;;;4977707;28;20130;-85
2021/03/25 00:43:24;;;;;;;33.30;17.50;;;-0.80;99.90;;;;;;4994841;28;20167;-85
2021/03/25 00:45:51;;;;;;;38.20;19.05;;;-0.90;99.90;;;;;;4993483;28;20586;-85
2021/03/25 00:48:21;;;;;;;39.85;18.52;;;-0.90;99.90;;;;;;4977201;28;20470;-84
2021/03/25 00:50:54;;;;;;;44.70;19.17;;;-0.90;99.90;;;;;;4977942;28;20054;-85
2021/03/25 00:53:30;;;;;;;41.78;19.23;;;-0.90;99.90;;;;;;4977524;28;20137;-85
2021/03/25 00:55:57;;;;;;;40.25;19.25;;;-0.90;99.90;;;;;;4993545;28;20077;-85
2021/03/25 00:58:24;;;;;;;36.25;17.98;;;-0.80;99.90;;;;;;4994278;28;20058;-84
2021/03/25 01:00:50;;;;;;;30.08;16.98;;;-0.90;99.90;;;;;;4995203;28;20141;-84
2021/03/25 01:03:26;;;;;;;37.90;18.33;;;-1.00;99.90;;;;;;4977443;28;20086;-85
2021/03/25 01:05:53;;;;;;;34.80;18.00;;;-1.00;99.90;;;;;;4994233;28;20047;-84
2021/03/25 01:08:20;;;;;;;35.30;18.23;;;-1.00;99.90;;;;;;4994377;28;20068;-84
2021/03/25 01:11:08;;;;;;;37.15;19.00;;;-1.00;99.90;;;;;;4979298;28;20495;-85
2021/03/25 01:13:52;;;;;;;42.72;19.30;;;-1.00;99.90;;;;;;4994185;28;20133;-85
2021/03/25 01:16:41;;;;;;;37.97;18.50;;;-1.10;99.90;;;;;;4977186;28;20082;-85
2021/03/25 01:19:11;;;;;;;39.55;17.35;;;-1.10;99.90;;;;;;4976330;28;20057;-84
2021/03/25 01:21:38;;;;;;;41.45;18.52;;;-1.00;99.90;;;;;;4976790;28;20046;-84
2021/03/25 01:24:05;;;;;;;46.85;19.83;;;-1.10;99.90;;;;;;4993952;28;20487;-84
2021/03/25 01:26:31;;;;;;;41.03;18.92;;;-1.10;99.90;;;;;;4976733;28;20149;-84
2021/03/25 01:29:00;;;;;;;46.05;19.13;;;-1.20;99.90;;;;;;4993969;28;20134;-84
2021/03/25 01:31:27;;;;;;;47.67;20.52;;;-1.20;99.90;;;;;;4994036;28;20054;-84
2021/03/25 01:33:53;;;;;;;43.78;19.05;;;-1.10;99.90;;;;;;4992892;28;20133;-84
2021/03/25 01:36:21;;;;;;;51.00;18.75;;;-1.20;99.90;;;;;;4976816;28;20144;-84
2021/03/25 01:38:48;;;;;;;45.30;19.30;;;-1.20;99.90;;;;;;4993816;28;20046;-84
2021/03/25 01:41:21;;;;;;;45.50;20.85;;;-1.20;99.90;;;;;;4977400;28;20183;-84
2021/03/25 01:43:48;;;;;;;45.78;19.88;;;-1.30;99.90;;;;;;4992375;28;20483;-84
2021/03/25 01:46:23;;;;;;;42.25;21.20;;;-1.20;99.90;;;;;;4976434;28;20105;-84
2021/03/25 01:48:54;;;;;;;44.08;19.48;;;-1.20;99.90;;;;;;4993856;28;20419;-84
2021/03/25 01:51:48;;;;;;;41.25;18.75;;;-1.20;99.90;;;;;;4976382;28;20069;-84
2021/03/25 01:54:40;;;;;;;43.03;18.45;;;-1.30;99.90;;;;;;4976311;28;20104;-84
2021/03/25 01:57:25;;;;;;;41.45;18.42;;;-1.30;99.90;;;;;;4976182;28;20053;-84
2021/03/25 01:59:59;;;;;;;38.38;17.77;;;-1.30;99.90;;;;;;4993485;28;20061;-84
2021/03/25 02:02:43;;;;;;;46.55;19.67;;;-1.30;99.90;;;;;;4976327;28;20466;-84
2021/03/25 02:05:09;;;;;;;;;;;-1.20;99.90;;;;;;4978217;28;20050;-84
2021/03/25 02:07:54;;;;;;;44.85;19.38;;;-1.20;99.90;;;;;;4976451;28;19921;-83
2021/03/25 02:10:45;;;;;;;43.28;19.10;;;-1.30;99.90;;;;;;4993490;28;20555;-83
2021/03/25 02:13:24;;;;;;;44.00;19.00;;;-1.30;99.90;;;;;;4993343;28;20047;-83
2021/03/25 02:15:53;;;;;;;52.55;19.27;;;-1.30;99.90;;;;;;4993694;28;20057;-83
2021/03/25 02:18:22;;;;;;;42.63;18.92;;;-1.30;99.90;;;;;;4997490;28;20057;-83
2021/03/25 02:21:07;;;;;;;43.85;20.80;;;-1.30;99.90;;;;;;4980309;28;20503;-83
2021/03/25 02:23:55;;;;;;;46.35;19.50;;;-1.20;99.90;;;;;;4997161;28;20085;-83
2021/03/25 02:26:38;;;;;;;50.53;19.73;;;-1.30;99.90;;;;;;4980044;28;20128;-84
2021/03/25 02:29:28;;;;;;;44.40;19.60;;;-1.30;99.90;;;;;;4979878;28;20129;-83
2021/03/25 02:31:59;;;;;;;48.20;20.63;;;-1.30;99.90;;;;;;4996900;28;20161;-83
2021/03/25 02:34:30;;;;;;;47.47;19.67;;;-1.30;99.90;;;;;;4979935;28;20055;-83
2021/03/25 02:37:04;;;;;;;44.47;20.13;;;-1.30;99.90;;;;;;4997003;28;20558;-83
2021/03/25 02:39:40;;;;;;;46.92;19.90;;;-1.30;99.90;;;;;;4979838;28;20598;-84
2021/03/25 02:42:11;;;;;;;51.13;21.40;;;-1.40;99.90;;;;;;4996781;28;20046;-84
2021/03/25 02:44:45;;;;;;;42.90;19.40;;;-1.40;99.90;;;;;;4979681;28;20109;-83
2021/03/25 02:47:13;;;;;;;41.97;17.70;;;-1.40;99.90;;;;;;4996784;28;20137;-83
2021/03/25 02:49:50;;;;;;;53.13;20.40;;;-1.40;99.90;;;;;;4997071;28;20233;-83
2021/03/25 02:52:30;;;;;;;45.97;19.75;;;-1.40;99.90;;;;;;4979538;28;20140;-83
2021/03/25 02:55:00;;;;;;;47.30;19.45;;;-1.40;99.90;;;;;;4996778;28;20050;-83
2021/03/25 02:57:47;;;;;;;38.80;17.70;;;-1.40;99.90;;;;;;4996691;28;20054;-83
2021/03/25 03:00:19;;;;;;;34.42;17.63;;;-1.40;99.90;;;;;;4979577;28;20478;-83
2021/03/25 03:02:50;;;;;;;44.40;19.08;;;-1.40;99.90;;;;;;4979335;28;20074;-83
2021/03/25 03:05:22;;;;;;;46.38;19.40;;;-1.40;99.90;;;;;;4979249;28;20058;-83
2021/03/25 03:08:07;;;;;;;40.17;19.08;;;-1.40;99.90;;;;;;4996571;28;20053;-82
2021/03/25 03:11:05;;;;;;;48.35;19.92;;;-1.40;99.90;;;;;;4996906;28;20469;-83
2021/03/25 03:13:36;;;;;;;39.70;18.27;;;-1.40;99.90;;;;;;4968969;28;20085;-83
2021/03/25 03:16:28;;;;;;;46.17;19.00;;;-1.40;99.90;;;;;;4996587;28;20078;-83
2021/03/25 03:19:21;;;;;;;42.30;18.83;;;-1.50;99.90;;;;;;4979904;28;20046;-83
2021/03/25 03:21:53;;;;;;;46.28;18.30;;;-1.50;99.90;;;;;;5006913;28;20084;-83
2021/03/25 03:24:21;;;;;;;43.88;18.15;;;-1.50;99.90;;;;;;4996458;28;20530;-83
2021/03/25 03:26:51;;;;;;;40.22;18.45;;;-1.50;99.90;;;;;;4978781;28;20137;-83
2021/03/25 03:29:20;;;;;;;43.35;18.52;;;-1.50;99.90;;;;;;4978849;28;20081;-83
2021/03/25 03:32:18;;;;;;;37.33;17.27;;;-1.50;99.90;;;;;;4996108;28;20141;-83
2021/03/25 03:34:47;;;;;;;50.28;18.40;;;-1.50;99.90;;;;;;4996240;28;20053;-83
2021/03/25 03:37:25;;;;;;;49.53;18.52;;;-1.60;99.90;;;;;;4995758;28;20495;-82
2021/03/25 03:39:54;;;;;;;53.53;19.92;;;-1.60;99.90;;;;;;4979108;28;20410;-83
2021/03/25 03:42:21;;;;;;;49.15;19.08;;;-1.70;99.90;;;;;;4978624;28;20069;-83
2021/03/25 03:44:51;;;;;;;43.42;18.70;;;-1.60;99.90;;;;;;4978717;28;20046;-83
2021/03/25 03:47:21;;;;;;;43.95;18.27;;;-1.60;99.90;;;;;;4995850;28;20521;-83
2021/03/25 03:50:18;;;;;;;47.70;18.73;;;-1.50;99.90;;;;;;4995681;28;20488;-83
2021/03/25 03:52:49;;;;;;;42.88;19.05;;;-1.60;99.90;;;;;;4978520;28;20061;-83
2021/03/25 03:55:18;;;;;;;47.20;19.35;;;-1.60;99.90;;;;;;4995569;28;20054;-84
2021/03/25 03:58:12;;;;;;;48.63;18.70;;;-1.60;99.90;;;;;;4995528;28;20056;-83
2021/03/25 04:00:52;;;;;;;47.17;19.95;;;-1.60;99.90;;;;;;4995848;28;20503;-83
2021/03/25 04:03:37;;;;;;;49.65;19.45;;;-1.50;99.90;;;;;;4978319;28;20458;-84
2021/03/25 04:06:10;;;;;;;49.70;20.60;;;-1.60;99.90;;;;;;4995361;28;20097;-83
2021/03/25 04:09:05;;;;;;;51.20;20.90;;;-1.50;99.90;;;;;;4978513;28;20049;-84
2021/03/25 04:11:36;;;;;;;53.88;20.05;;;-1.50;99.90;;;;;;4978137;28;20133;-84
2021/03/25 04:14:16;;;;;;;58.97;21.08;;;-1.50;99.90;;;;;;4995286;28;20046;-83
2021/03/25 04:16:45;;;;;;;50.47;20.05;;;-1.50;99.90;;;;;;4990899;28;20137;-84
2021/03/25 04:19:40;;;;;;;48.13;19.55;;;-1.40;99.90;;;;;;4994261;28;20078;-84
2021/03/25 04:22:12;;;;;;;52.80;20.83;;;-1.40;99.90;;;;;;4970685;28;20546;-83
2021/03/25 04:24:46;;;;;;;56.40;21.35;;;-1.50;99.90;;;;;;4995543;28;20140;-84
2021/03/25 04:27:22;;;;;;;58.22;19.90;;;-1.50;99.90;;;;;;4977953;28;20050;-83
2021/03/25 04:29:59;;;;;;;48.35;18.63;;;-1.50;99.90;;;;;;4995174;28;20130;-83
2021/03/25 04:32:26;;;;;;;59.17;19.83;;;-1.60;99.90;;;;;;4994822;28;20138;-83
2021/03/25 04:34:53;;;;;;;56.17;21.13;;;-1.60;99.90;;;;;;4978658;28;20143;-83
2021/03/25 04:37:21;;;;;;;55.78;20.55;;;-1.60;99.90;;;;;;5006578;28;20114;-83
2021/03/25 04:39:49;;;;;;;59.63;23.08;;;-1.50;99.90;;;;;;4994319;28;20143;-84
2021/03/25 04:42:16;;;;;;;72.85;24.83;;;-1.50;99.90;;;;;;4977640;28;20458;-84
2021/03/25 04:44:51;;;;;;;83.65;26.25;;;-1.40;99.90;;;;;;4994944;28;20129;-84
2021/03/25 04:47:29;;;;;;;65.40;21.92;;;-1.30;99.90;;;;;;4977185;28;20578;-83
2021/03/25 04:50:12;;;;;;;55.28;20.75;;;-1.30;99.90;;;;;;4993596;28;20058;-83
2021/03/25 04:52:39;;;;;;;53.70;19.33;;;-1.50;99.90;;;;;;4994375;28;20060;-83
2021/03/25 04:55:21;;;;;;;48.30;20.30;;;-1.50;99.90;;;;;;4977455;28;20077;-84
2021/03/25 04:57:55;;;;;;;52.77;19.57;;;-1.50;99.90;;;;;;4994449;28;20086;-83
2021/03/25 05:00:29;;;;;;;44.90;19.75;;;-1.60;99.90;;;;;;4977271;28;20129;-83
2021/03/25 05:03:01;;;;;;;56.25;19.10;;;-1.60;99.90;;;;;;4977964;28;20050;-84
2021/03/25 05:05:30;;;;;;;57.28;19.90;;;-1.60;99.90;;;;;;4977096;28;20063;-83
2021/03/25 05:08:04;;;;;;;47.53;19.23;;;-1.60;99.90;;;;;;4976638;28;20047;-83
2021/03/25 05:10:44;;;;;;;52.60;18.98;;;-1.60;99.90;;;;;;4994271;28;20487;-83
2021/03/25 05:13:26;;;;;;;54.40;21.27;;;-1.60;99.90;;;;;;4976741;28;20061;-83
2021/03/25 05:16:07;;;;;;;50.67;18.92;;;-1.50;99.90;;;;;;4976990;28;20078;-83
2021/03/25 05:18:36;;;;;;;51.00;19.95;;;-1.50;99.90;;;;;;4989792;28;20113;-84
2021/03/25 05:21:11;;;;;;;51.03;20.15;;;-1.60;99.90;;;;;;4994121;28;20054;-83
2021/03/25 05:23:54;;;;;;;70.95;23.60;;;-1.50;99.90;;;;;;4994010;28;20483;-84
2021/03/25 05:26:26;;;;;;;59.78;21.88;;;-1.50;99.90;;;;;;4976864;28;20120;-84
2021/03/25 05:29:00;;;;;;;66.60;23.13;;;-1.40;99.90;;;;;;4993994;28;20141;-83
2021/03/25 05:31:28;;;;;;;57.95;22.30;;;-1.30;99.90;;;;;;4994104;28;20085;-84
2021/03/25 05:34:00;;;;;;;77.32;23.63;;;-1.30;99.90;;;;;;4993839;28;20058;-84
2021/03/25 05:36:28;;;;;;;78.07;21.83;;;-1.30;99.90;;;;;;4992476;28;20117;-84
2021/03/25 05:38:56;;;;;;;60.78;22.35;;;-1.30;99.90;;;;;;4992743;28;20109;-84
2021/03/25 05:41:30;;;;;;;65.05;24.00;;;-1.30;99.90;;;;;;4976211;28;20042;-84
2021/03/25 05:44:34;;;;;;;76.38;25.83;;;-1.20;99.90;;;;;;4976262;28;20125;-83
2021/03/25 05:47:03;;;;;;;70.28;23.40;;;-1.20;99.90;;;;;;4976450;28;20129;-83
2021/03/25 05:49:52;;;;;;;69.80;24.67;;;-1.20;99.90;;;;;;4976629;28;20081;-83
2021/03/25 05:52:37;;;;;;;78.90;27.75;;;-1.20;99.90;;;;;;4980720;28;20085;-84
2021/03/25 05:55:31;;;;;;;77.78;28.25;;;-1.10;99.90;;;;;;4980740;28;20116;-83
2021/03/25 05:58:20;;;;;;;94.45;29.60;;;-1.00;99.90;;;;;;4993444;28;20545;-83
2021/03/25 06:00:55;;;;;;;79.85;26.05;;;-1.00;99.90;;;;;;4976450;28;20076;-84
2021/03/25 06:03:23;;;;;;;71.90;23.88;;;-1.00;99.90;;;;;;4976266;28;20125;-83
2021/03/25 06:05:53;;;;;;;78.28;25.58;;;-0.90;99.90;;;;;;4993229;28;20462;-83
2021/03/25 06:08:30;;;;;;;73.00;26.63;;;-0.90;99.90;;;;;;4976188;28;20499;-83
2021/03/25 06:11:22;;;;;;;117.88;33.67;;;-0.80;99.90;;;;;;4992959;28;20043;-83
2021/03/25 06:14:11;;;;;;;95.53;31.13;;;-0.70;99.90;;;;;;4993282;28;20056;-83
2021/03/25 06:16:51;;;;;;;115.72;35.72;;;-0.40;99.90;;;;;;4993532;28;20121;-84
2021/03/25 06:19:23;;;;;;;161.23;41.38;;;-0.30;99.90;;;;;;4992295;28;20046;-84
2021/03/25 06:21:52;;;;;;;123.25;38.50;;;-0.10;99.90;;;;;;4993528;28;20492;-84
2021/03/25 06:24:59;;;;;;;156.32;45.78;;;0.10;99.90;;;;;;4993440;28;20153;-84
2021/03/25 06:28:03;;;;;;;593.40;111.68;;;0.50;99.90;;;;;;4993464;28;20130;-84
2021/03/25 06:30:33;;;;;;;169.23;51.85;;;1.50;99.90;;;;;;4972454;28;20101;-84
2021/03/25 06:33:03;;;;;;;156.23;51.60;;;2.10;99.90;;;;;;4976214;28;20554;-85
2021/03/25 06:35:41;;;;;;;122.28;43.92;;;2.50;99.90;;;;;;4976301;28;20475;-85
2021/03/25 06:38:18;;;;;;;80.38;35.15;;;3.20;99.90;;;;;;4976281;28;20146;-85
2021/03/25 06:41:02;;;;;;;63.95;28.95;;;3.40;99.90;;;;;;4976443;28;20572;-85
2021/03/25 06:43:31;;;;;;;;;;;3.80;99.90;;;;;;4994160;28;20450;-85
2021/03/25 06:46:06;;;;;;;54.63;21.98;;;3.90;99.90;;;;;;4993368;28;19922;-85
2021/03/25 06:48:39;;;;;;;60.33;18.85;;;3.80;99.90;;;;;;4993470;28;20096;-85
2021/03/25 06:51:30;;;;;;;55.30;17.40;;;4.10;99.90;;;;;;4976152;28;20149;-86
2021/03/25 06:54:11;;;;;;;40.63;16.02;;;4.40;99.90;;;;;;4965018;28;20125;-85
2021/03/25 06:56:43;;;;;;;32.13;14.48;;;5.40;99.90;;;;;;4976239;28;20068;-86
2021/03/25 06:59:19;;;;;;;28.80;13.50;;;5.70;99.90;;;;;;4976154;28;20133;-86
2021/03/25 07:01:50;;;;;;;33.05;13.43;;;6.10;99.90;;;;;;4989616;28;20076;-85
2021/03/25 07:04:25;;;;;;;37.35;12.93;;;6.70;99.90;;;;;;4995868;28;20051;-86
2021/03/25 07:06:54;;;;;;;37.53;12.68;;;7.60;99.90;;;;;;4979769;28;20143;-86
2021/03/25 07:09:28;;;;;;;33.30;14.38;;;8.00;99.90;;;;;;4988183;28;20341;-86
2021/03/25 07:11:57;;;;;;;29.95;12.68;;;8.20;99.90;;;;;;4986141;28;20078;-86
2021/03/25 07:14:37;;;;;;;36.28;12.38;;;8.00;99.90;;;;;;4983072;28;20407;-85
2021/03/25 07:17:04;;;;;;;32.15;10.80;;;8.10;99.90;;;;;;4984592;28;20078;-85
2021/03/25 07:19:34;;;;;;;41.28;12.32;;;8.80;99.90;;;;;;4986091;28;20487;-86
2021/03/25 07:22:19;;;;;;;28.13;12.02;;;9.10;99.90;;;;;;4968293;28;20503;-86
2021/03/25 07:24:45;;;;;;;46.75;13.02;;;8.90;99.90;;;;;;4965376;28;20073;-85
2021/03/25 07:27:13;;;;;;;61.92;13.20;;;8.90;99.90;;;;;;4965490;28;20066;-85
2021/03/25 07:29:43;;;;;;;52.22;14.95;;;8.70;99.90;;;;;;4968314;28;20070;-85
2021/03/25 07:32:09;;;;;;;35.38;12.75;;;9.20;99.90;;;;;;4965489;28;20134;-84
2021/03/25 07:34:38;;;;;;;99.32;21.80;;;9.40;99.90;;;;;;4977075;28;20043;-86
2021/03/25 07:37:07;;;;;;;51.83;14.40;;;10.00;99.90;;;;;;4981005;28;20472;-86
2021/03/25 07:39:47;;;;;;;42.80;14.98;;;10.60;99.90;;;;;;4985335;28;20515;-86
2021/03/25 07:42:28;;;;;;;32.55;13.35;;;11.70;99.90;;;;;;4959555;28;20047;-86
2021/03/25 07:45:26;;;;;;;40.20;16.90;;;12.40;99.90;;;;;;4960029;28;20062;-85
2021/03/25 07:47:54;;;;;;;106.82;43.53;;;13.10;99.90;;;;;;4976235;28;20171;-86
2021/03/25 07:50:25;;;;;;;39.50;17.00;;;13.70;93.40;;;;;;4968941;28;20054;-86
2021/03/25 07:52:52;;;;;;;53.20;18.63;;;14.30;91.70;;;;;;4959369;28;20057;-86
2021/03/25 07:55:18;;;;;;;50.65;16.38;;;14.50;91.30;;;;;;4959678;28;20047;-86
2021/03/25 07:57:47;;;;;;;102.55;39.67;;;14.20;91.40;;;;;;4976580;28;20134;-86
2021/03/25 08:00:27;;;;;;;126.97;49.95;;;13.70;92.30;;;;;;4976404;28;20078;-85
2021/03/25 08:03:08;;;;;;;142.23;57.80;;;12.90;96.00;;;;;;4976549;28;20051;-85
2021/03/25 08:05:35;;;;;;;32.42;14.23;;;12.90;96.60;;;;;;4976573;28;20125;-85
2021/03/25 08:08:18;;;;;;;136.23;52.10;;;13.20;96.50;;;;;;4959347;28;20453;-86
2021/03/25 08:10:46;;;;;;;174.77;60.38;;;13.30;96.00;;;;;;4976491;28;20554;-86
2021/03/25 08:13:26;;;;;;;187.77;67.45;;;13.50;95.10;;;;;;4958573;28;20109;-86
2021/03/25 08:16:12;;;;;;;30.85;14.95;;;14.10;93.80;;;;;;4976057;28;20082;-86
2021/03/25 08:19:20;;;;;;;159.02;71.03;;;15.20;91.90;;;;;;4959463;28;20061;-84
2021/03/25 08:22:14;;;;;;;192.23;74.32;;;16.00;83.20;;;;;;4959027;28;20078;-84
2021/03/25 08:24:55;;;;;;;34.28;16.45;;;16.40;78.60;;;;;;4961777;28;20058;-84
2021/03/25 08:27:40;;;;;;;40.95;19.63;;;17.50;77.20;;;;;;4963800;28;20081;-84
2021/03/25 08:30:34;;;;;;;33.97;12.98;;;17.50;73.40;;;;;;4976155;28;20129;-84
2021/03/25 08:33:25;;;;;;;24.35;11.25;;;18.50;69.90;;;;;;4975866;28;20118;-84
2021/03/25 08:36:20;;;;;;;117.97;39.33;;;19.80;65.50;;;;;;4958533;28;20109;-84
2021/03/25 08:39:18;;;;;;;40.45;16.17;;;20.00;61.70;;;;;;4974734;28;20133;-84
2021/03/25 08:41:53;;;;;;;529.97;156.50;;;19.80;63.10;;;;;;4958713;28;20134;-85
2021/03/25 08:44:37;;;;;;;458.02;138.02;;;20.60;59.50;;;;;;4977392;28;20085;-84
2021/03/25 08:47:31;;;;;;;22.60;11.23;;;21.50;57.20;;;;;;4995259;28;20054;-84
2021/03/25 08:50:20;;;;;;;;;;;21.50;56.50;;;;;;4978434;28;20089;-85
2021/03/25 08:52:47;;;;;;;55.72;20.50;;;22.00;55.30;;;;;;4994862;28;19976;-85
2021/03/25 08:55:25;;;;;;;194.30;65.47;;;22.40;53.90;;;;;;4977601;28;20058;-85
2021/03/25 08:57:57;;;;;;;206.20;75.72;;;21.70;54.30;;;;;;4994753;28;20570;-84
2021/03/25 09:00:28;;;;;;;385.58;154.65;;;21.60;53.90;;;;;;4977731;28;20081;-85
2021/03/25 09:03:23;;;;;;;94.10;33.22;;;22.20;54.30;;;;;;4994673;28;20541;-85
2021/03/25 09:06:03;;;;;;;299.63;115.30;;;22.30;53.70;;;;;;4977548;28;20060;-85
2021/03/25 09:08:33;;;;;;;138.25;46.70;;;23.00;52.70;;;;;;4977694;28;20145;-85
2021/03/25 09:11:02;;;;;;;272.00;100.95;;;22.70;52.50;;;;;;4994546;28;20105;-85
2021/03/25 09:13:31;;;;;;;55.72;13.40;;;23.10;51.10;;;;;;4994627;28;20407;-85
2021/03/25 09:16:25;;;;;;;94.30;31.20;;;23.20;51.10;;;;;;4994329;28;20055;-85
2021/03/25 09:18:52;;;;;;;29.83;11.70;;;23.90;51.10;;;;;;4994585;28;20129;-85
2021/03/25 09:21:32;;;;;;;29.17;12.27;;;24.20;52.10;;;;;;4977507;28;20057;-85
2021/03/25 09:23:58;;;;;;;313.55;136.10;;;25.30;48.80;;;;;;4977518;28;20060;-85
2021/03/25 09:26:25;;;;;;;49.70;12.98;;;24.80;48.90;;;;;;4993982;28;20137;-85
2021/03/25 09:29:06;;;;;;;39.85;11.93;;;25.10;49.80;;;;;;4994659;28;20089;-85
2021/03/25 09:31:38;;;;;;;46.97;19.25;;;25.80;47.90;;;;;;4977394;28;20129;-85
2021/03/25 09:34:10;;;;;;;44.20;18.80;;;23.60;48.30;;;;;;4994167;28;20050;-85
2021/03/25 09:36:36;;;;;;;18.00;11.25;;;24.20;47.90;;;;;;4977222;28;20558;-85
2021/03/25 09:39:03;;;;;;;148.40;59.83;;;23.10;47.80;;;;;;4977089;28;20057;-85
2021/03/25 09:41:29;;;;;;;40.20;17.27;;;21.50;50.60;;;;;;4979186;28;20626;-84
2021/03/25 09:44:05;;;;;;;22.17;10.95;;;22.60;51.10;;;;;;4979206;28;20097;-85
2021/03/25 09:46:43;;;;;;;17.95;9.48;;;23.70;50.80;;;;;;4994419;28;20129;-85
2021/03/25 09:49:27;;;;;;;16.77;9.05;;;26.20;48.70;;;;;;4977199;28;20058;-85
2021/03/25 09:52:11;;;;;;;18.88;9.60;;;28.00;45.20;;;;;;4976588;28;20051;-85
2021/03/25 09:54:41;;;;;;;18.57;10.00;;;27.70;42.40;;;;;;4977248;28;20053;-85
2021/03/25 09:57:34;;;;;;;20.13;10.80;;;27.50;42.80;;;;;;4976868;28;20043;-84
2021/03/25 10:00:21;;;;;;;23.40;11.07;;;26.60;42.10;;;;;;4993778;28;20140;-85
2021/03/25 10:02:49;;;;;;;19.58;10.73;;;26.00;43.10;;;;;;4994435;28;20298;-85
2021/03/25 10:05:24;;;;;;;22.58;11.73;;;26.50;43.80;;;;;;4988584;28;20043;-84
2021/03/25 10:07:53;;;;;;;23.05;11.32;;;26.20;42.40;;;;;;4973337;28;20065;-84
2021/03/25 10:10:38;;;;;;;31.00;10.52;;;25.40;42.40;;;;;;4957100;28;20129;-84
2021/03/25 10:13:05;;;;;;;21.27;10.80;;;24.30;44.70;;;;;;4972877;28;20053;-84
2021/03/25 10:15:40;;;;;;;17.05;10.52;;;22.40;46.60;;;;;;4974200;28;20101;-84
2021/03/25 10:18:32;;;;;;;27.63;11.38;;;20.90;48.60;;;;;;4972911;28;20157;-84
2021/03/25 10:21:09;;;;;;;21.02;11.30;;;20.30;50.20;;;;;;4974256;28;20046;-85
2021/03/25 10:23:52;;;;;;;24.73;11.48;;;19.60;51.40;;;;;;4956858;28;20122;-84
2021/03/25 10:26:35;;;;;;;21.40;10.85;;;19.10;53.00;;;;;;4974170;28;20411;-84
2021/03/25 10:29:18;;;;;;;21.88;12.40;;;18.60;54.20;;;;;;4973971;28;20051;-86
2021/03/25 10:31:48;;;;;;;20.48;11.70;;;17.90;55.60;;;;;;4957040;28;20055;-84
2021/03/25 10:34:19;;;;;;;28.70;10.95;;;17.50;56.40;;;;;;4972988;28;20546;-84
2021/03/25 10:37:01;;;;;;;16.92;10.70;;;17.50;57.50;;;;;;4974079;28;20062;-83
2021/03/25 10:39:42;;;;;;;21.52;10.73;;;17.60;57.30;;;;;;4960581;28;20059;-85
2021/03/25 10:42:27;;;;;;;19.85;10.77;;;17.60;57.30;;;;;;4960547;28;20400;-84
2021/03/25 10:44:55;;;;;;;21.17;10.00;;;17.70;57.20;;;;;;4976851;28;20051;-85
2021/03/25 10:47:30;;;;;;;17.33;10.38;;;18.10;57.20;;;;;;4977966;28;20384;-84
2021/03/25 10:50:00;;;;;;;20.15;10.55;;;18.10;56.10;;;;;;4977507;28;20146;-85
2021/03/25 10:52:38;;;;;;;22.65;10.15;;;18.90;56.00;;;;;;4977704;28;20086;-85
2021/03/25 10:55:15;;;;;;;21.90;11.07;;;20.20;53.60;;;;;;4976281;28;20137;-85
2021/03/25 10:57:50;;;;;;;22.15;10.70;;;21.50;51.10;;;;;;4979681;28;20554;-84
2021/03/25 11:00:22;;;;;;;19.05;10.77;;;20.60;51.60;;;;;;4965250;28;20062;-85
2021/03/25 11:02:49;;;;;;;16.90;9.98;;;20.60;51.30;;;;;;4960156;28;20129;-85
2021/03/25 11:05:23;;;;;;;21.48;10.40;;;21.20;50.60;;;;;;4976018;28;20484;-86
2021/03/25 11:07:58;;;;;;;18.63;9.45;;;21.00;51.10;;;;;;4960097;28;20559;-86
2021/03/25 11:10:36;;;;;;;17.73;10.23;;;21.90;50.50;;;;;;4960147;28;20130;-86
2021/03/25 11:13:11;;;;;;;22.73;11.02;;;22.90;48.80;;;;;;4959688;28;20054;-85
2021/03/25 11:16:18;;;;;;;15.50;10.20;;;23.10;46.50;;;;;;4976330;28;20051;-85
2021/03/25 11:18:54;;;;;;;18.55;11.48;;;23.50;46.20;;;;;;4952348;28;20065;-86
2021/03/25 11:21:27;;;;;;;17.20;10.43;;;23.40;46.50;;;;;;4959750;28;20503;-86
2021/03/25 11:24:06;;;;;;;19.05;10.52;;;23.70;45.70;;;;;;4959912;28;20086;-85
2021/03/25 11:26:34;;;;;;;26.60;10.48;;;23.90;45.20;;;;;;4960102;28;20055;-87
2021/03/25 11:29:01;;;;;;;51.65;12.77;;;23.90;45.00;;;;;;4975908;28;20090;-86
2021/03/25 11:31:30;;;;;;;24.10;11.13;;;23.00;45.70;;;;;;4959692;28;20061;-84
2021/03/25 11:33:57;;;;;;;20.02;10.85;;;22.20;47.00;;;;;;4976618;28;20050;-86
2021/03/25 11:36:44;;;;;;;17.88;8.93;;;23.50;46.50;;;;;;4976022;28;20066;-85
2021/03/25 11:39:16;;;;;;;16.02;9.73;;;24.70;44.80;;;;;;4976428;28;20046;-84
2021/03/25 11:41:45;;;;;;;17.55;10.32;;;24.80;44.40;;;;;;4976466;28;20481;-85
2021/03/25 11:44:31;;;;;;;17.00;9.05;;;25.00;43.10;;;;;;4976346;28;20070;-85
2021/03/25 11:47:19;;;;;;;15.65;9.13;;;26.00;42.60;;;;;;4958992;28;20117;-84
2021/03/25 11:49:46;;;;;;;18.63;10.45;;;26.50;41.90;;;;;;4959271;28;20047;-85
2021/03/25 11:52:13;;;;;;;18.40;9.65;;;25.60;41.30;;;;;;4974561;28;20481;-85
2021/03/25 11:54:42;;;;;;;19.35;10.63;;;24.80;43.80;;;;;;4959122;28;20102;-84
2021/03/25 11:57:21;;;;;;;18.35;9.68;;;23.90;42.90;;;;;;4959326;28;20074;-85
2021/03/25 11:59:47;;;;;;;21.17;10.13;;;23.60;44.60;;;;;;4959396;28;20129;-84
2021/03/25 12:02:22;;;;;;;15.88;9.93;;;23.70;45.10;;;;;;4975925;28;20051;-84
2021/03/25 12:04:50;;;;;;;18.13;9.93;;;23.10;44.90;;;;;;4976212;28;20063;-84
2021/03/25 12:07:24;;;;;;;18.17;8.98;;;23.10;45.20;;;;;;4959035;28;20522;-85
2021/03/25 12:10:02;;;;;;;17.25;9.77;;;23.10;45.60;;;;;;4956086;28;20150;-84
2021/03/25 12:12:29;;;;;;;15.70;8.95;;;23.00;45.90;;;;;;4959196;28;20186;-85
2021/03/25 12:14:56;;;;;;;13.77;9.63;;;22.90;45.60;;;;;;4962260;28;20102;-85
2021/03/25 12:17:23;;;;;;;17.27;9.18;;;22.60;45.90;;;;;;4975591;28;20134;-84
2021/03/25 12:19:51;;;;;;;92.43;13.57;;;22.80;45.90;;;;;;4975710;28;20066;-84
2021/03/25 12:22:28;;;;;;;15.40;9.23;;;23.00;46.00;;;;;;4976129;28;20106;-84
2021/03/25 12:24:54;;;;;;;14.02;8.25;;;22.60;46.00;;;;;;4958829;28;20117;-85
2021/03/25 12:27:27;;;;;;;14.77;9.50;;;22.20;47.30;;;;;;4958885;28;20408;-84
2021/03/25 12:29:55;;;;;;;13.60;9.15;;;22.00;46.30;;;;;;4974276;28;20086;-84
2021/03/25 12:32:29;;;;;;;25.55;8.90;;;21.40;46.90;;;;;;4975515;28;20050;-84
2021/03/25 12:35:06;;;;;;;23.73;9.07;;;21.40;47.20;;;;;;4959795;28;20058;-84
2021/03/25 12:37:33;;;;;;;12.00;8.00;;;21.40;48.00;;;;;;4958454;28;20054;-84
2021/03/25 12:39:59;;;;;;;17.92;9.13;;;21.30;47.90;;;;;;4958127;28;20522;-84
2021/03/25 12:42:25;;;;;;;14.32;9.07;;;21.30;47.40;;;;;;4957943;28;20078;-85
2021/03/25 12:44:55;;;;;;;15.88;8.85;;;21.10;48.40;;;;;;4975216;28;20046;-84
2021/03/25 12:47:21;;;;;;;15.48;8.95;;;20.90;48.60;;;;;;4957817;28;20125;-84
2021/03/25 12:50:03;;;;;;;17.38;8.93;;;20.60;48.80;;;;;;4960098;28;20139;-84
2021/03/25 12:52:30;;;;;;;12.70;7.67;;;20.30;50.40;;;;;;4958165;28;20125;-84
2021/03/25 12:54:56;;;;;;;11.57;7.10;;;20.70;50.30;;;;;;4958151;28;20377;-85
2021/03/25 12:57:27;;;;;;;12.13;7.53;;;20.70;49.10;;;;;;4958223;28;20412;-84
2021/03/25 12:59:58;;;;;;;18.80;7.72;;;20.80;50.70;;;;;;4957377;28;20059;-84
2021/03/25 13:02:27;;;;;;;47.83;10.88;;;21.20;49.10;;;;;;4958416;28;20058;-84
2021/03/25 13:04:54;;;;;;;19.05;8.63;;;20.40;49.80;;;;;;4974820;28;20051;-84
2021/03/25 13:07:20;;;;;;;14.15;8.00;;;20.30;49.90;;;;;;4973531;28;20051;-84
2021/03/25 13:09:46;;;;;;;23.38;8.68;;;20.20;50.70;;;;;;4975019;28;20412;-84